Time;durP1;ratioP1;P1;durP2;ratioP2;P2;SDS_P1;SDS_P2;PMS_P1;PMS_P2;Temp;Humidity;BMP_temperature;BMP_pressure;BME280_temperature;BME280_humidity;BME280_pressure;Samples;Min_cycle;Max_cycle;Signal;HPM_P1;HPM_P2
2022/12/12 00:02:37;;;;;;;1.83;1.65;;;;;;;-7.17;87.39;100875.22;10609504;28;20587;-76
2022/12/12 00:07:39;;;;;;;2.42;1.50;;;;;;;-7.17;87.91;100836.06;10613782;28;20043;-75
2022/12/12 00:12:41;;;;;;;2.40;1.90;;;;;;;-7.17;87.20;100852.06;10611318;28;20036;-75
2022/12/12 00:17:43;;;;;;;2.80;2.25;;;;;;;-7.17;87.83;100837.91;10598788;28;20512;-74
2022/12/12 00:22:46;;;;;;;1.48;1.38;;;;;;;-7.11;87.49;100821.28;10597086;28;20043;-74
2022/12/12 00:27:48;;;;;;;1.73;1.38;;;;;;;-7.10;86.91;100834.44;10599656;28;20067;-74
2022/12/12 00:32:50;;;;;;;1.98;1.55;;;;;;;-7.10;87.14;100815.78;10597367;28;20418;-74
2022/12/12 00:37:52;;;;;;;5.07;1.77;;;;;;;-7.07;87.96;100830.63;10607410;28;20046;-75
2022/12/12 00:42:55;;;;;;;2.70;1.33;;;;;;;-7.05;87.43;100836.63;10570912;28;20037;-75
2022/12/12 00:47:58;;;;;;;0.73;0.70;;;;;;;-7.03;87.32;100824.78;10597460;28;20042;-76
2022/12/12 00:53:00;;;;;;;4.40;1.90;;;;;;;-6.97;87.22;100809.94;10604504;28;20059;-74
2022/12/12 00:58:02;;;;;;;2.35;1.70;;;;;;;-6.92;87.38;100777.47;10611789;28;20050;-75
2022/12/12 01:03:04;;;;;;;1.52;1.23;;;;;;;-6.88;86.79;100784.97;10612716;28;20048;-75
2022/12/12 01:08:06;;;;;;;2.95;2.25;;;;;;;-6.81;86.61;100766.47;10608630;28;20039;-75
2022/12/12 01:13:08;;;;;;;3.95;2.15;;;;;;;-6.76;86.60;100786.34;10599549;28;20035;-75
2022/12/12 01:18:11;;;;;;;0.55;0.52;;;;;;;-6.71;86.44;100772.50;10611860;28;20042;-74
2022/12/12 01:23:13;;;;;;;1.75;1.20;;;;;;;-6.69;86.65;100792.66;10600011;28;20038;-76
2022/12/12 01:28:15;;;;;;;1.20;1.00;;;;;;;-6.68;87.12;100780.16;10606664;28;20047;-77
2022/12/12 01:33:18;;;;;;;4.97;2.25;;;;;;;-6.69;87.43;100717.13;10605584;28;20088;-75
2022/12/12 01:38:20;;;;;;;2.65;2.30;;;;;;;-6.68;87.24;100730.28;10596288;27;20056;-76
2022/12/12 01:43:24;;;;;;;3.33;1.92;;;;;;;-6.67;87.00;100723.13;10609310;28;20034;-74
2022/12/12 01:48:36;;;;;;;2.67;1.38;;;;;;;-6.63;86.86;100743.13;10601509;28;20498;-74
2022/12/12 01:53:38;;;;;;;4.03;1.83;;;;;;;-6.62;86.70;100690.59;10604010;28;20047;-75
2022/12/12 01:58:45;;;;;;;2.63;1.25;;;;;;;-6.58;87.01;100695.44;10582223;28;20051;-75
2022/12/12 02:03:48;;;;;;;1.40;1.30;;;;;;;-6.55;86.43;100684.41;10596783;28;20044;-76
2022/12/12 02:08:52;;;;;;;1.70;1.60;;;;;;;-6.53;86.45;100686.91;10597608;28;20051;-75
2022/12/12 02:13:55;;;;;;;2.80;2.10;;;;;;;-6.56;86.80;100634.72;10585491;28;20055;-75
2022/12/12 02:19:21;;;;;;;3.63;2.10;;;;;;;-6.56;87.20;100647.22;10603074;28;20035;-75
2022/12/12 02:24:38;;;;;;;1.70;1.20;;;;;;;-6.57;87.09;100653.56;10601890;28;20031;-76
2022/12/12 02:30:08;;;;;;;2.45;1.42;;;;;;;-6.57;87.78;100658.91;10591654;28;20395;-76
2022/12/12 02:35:47;;;;;;;1.15;1.02;;;;;;;-6.59;87.28;100653.75;10597498;28;20445;-76
2022/12/12 02:41:05;;;;;;;2.45;1.60;;;;;;;-6.64;87.15;100633.88;10608915;28;20055;-76
2022/12/12 02:46:19;;;;;;;4.80;2.88;;;;;;;-6.64;87.68;100633.88;10609258;28;20028;-76
2022/12/12 02:51:21;;;;;;;2.67;1.70;;;;;;;-6.68;86.78;100623.56;10601415;28;20043;-76
2022/12/12 02:56:42;;;;;;;1.27;0.93;;;;;;;-6.65;86.82;100590.34;10622303;27;20082;-75
2022/12/12 03:01:53;;;;;;;2.08;1.45;;;;;;;-6.59;87.04;100610.22;10617432;28;20414;-76
2022/12/12 03:12:39;;;;;;;1.95;1.77;;;;;;;-6.62;86.92;100584.69;10616044;28;20035;-76
2022/12/12 03:17:43;;;;;;;4.47;2.75;;;;;;;-6.62;86.82;100558.00;10603947;28;20054;-76
2022/12/12 03:23:13;;;;;;;4.28;2.72;;;;;;;-6.61;86.81;100573.00;10607326;28;20052;-76
2022/12/12 03:28:31;;;;;;;2.30;1.65;;;;;;;-6.61;87.16;100556.97;10614549;28;20043;-77
2022/12/12 03:33:46;;;;;;;2.42;1.50;;;;;;;-6.60;87.22;100555.16;10596830;28;20133;-78
2022/12/12 03:38:56;;;;;;;3.83;2.88;;;;;;;-6.58;86.86;100540.66;10608093;28;20051;-76
2022/12/12 03:44:05;;;;;;;4.45;2.53;;;;;;;-6.60;86.99;100579.16;10594122;28;20567;-76
2022/12/12 03:49:14;;;;;;;4.68;3.03;;;;;;;-6.63;87.73;100567.00;10589763;28;20039;-77
2022/12/12 03:54:21;;;;;;;3.47;2.13;;;;;;;-6.68;88.27;100529.34;10599977;28;20043;-77
2022/12/12 03:59:29;;;;;;;5.10;2.58;;;;;;;-6.68;89.05;100505.31;10605229;28;20066;-77
2022/12/12 04:04:37;;;;;;;4.63;2.15;;;;;;;-6.74;89.97;100477.50;10607625;28;20048;-76
2022/12/12 04:15:31;;;;;;;1.42;1.27;;;;;;;-6.82;91.65;100455.34;10610029;28;20449;-77
2022/12/12 04:26:38;;;;;;;3.13;2.10;;;;;;;-6.89;93.76;100422.38;10595312;28;20039;-77
2022/12/12 04:31:50;;;;;;;2.15;1.48;;;;;;;-6.89;94.37;100395.72;10599320;28;20044;-76
2022/12/12 04:36:53;;;;;;;3.15;2.28;;;;;;;-6.87;95.23;100437.19;10575016;28;20043;-77
2022/12/12 04:41:56;;;;;;;4.38;2.58;;;;;;;-6.90;95.46;100384.22;10598983;28;20042;-76
2022/12/12 04:47:00;;;;;;;5.03;2.35;;;;;;;-6.91;96.54;100358.53;10610308;28;20043;-76
2022/12/12 04:52:08;;;;;;;3.45;1.75;;;;;;;-6.87;97.08;100343.00;10596060;28;20031;-76
2022/12/12 04:57:14;;;;;;;2.22;1.67;;;;;;;-6.87;96.97;100333.19;10612520;28;20656;-78
2022/12/12 05:02:49;;;;;;;4.53;1.98;;;;;;;-6.81;97.23;100358.31;10606725;28;20561;-77
2022/12/12 05:07:55;;;;;;;1.98;1.73;;;;;;;-6.80;97.91;100309.28;10570098;28;20063;-78
2022/12/12 05:12:59;;;;;;;3.25;2.00;;;;;;;-6.80;98.41;100318.13;10578901;28;20051;-78
2022/12/12 05:18:06;;;;;;;1.77;1.40;;;;;;;-6.77;98.35;100303.59;10596227;28;20036;-76
2022/12/12 05:23:08;;;;;;;8.02;2.70;;;;;;;-6.75;98.83;100290.94;10608518;28;20126;-78
2022/12/12 05:28:11;;;;;;;1.15;1.05;;;;;;;-6.73;99.08;100272.91;10597895;28;20059;-78
2022/12/12 05:33:13;;;;;;;4.13;2.78;;;;;;;-6.72;99.52;100267.38;10609482;28;20043;-79
2022/12/12 05:38:15;;;;;;;2.63;1.70;;;;;;;-6.69;99.24;100272.34;10586857;27;20494;-78
2022/12/12 05:43:17;;;;;;;2.58;2.00;;;;;;;-6.66;99.95;100295.19;10583163;28;20054;-79
2022/12/12 05:48:19;;;;;;;3.72;1.95;;;;;;;-6.65;99.43;100272.81;10612883;28;20493;-79
2022/12/12 05:53:22;;;;;;;2.63;1.60;;;;;;;-6.63;99.94;100241.44;10606066;28;20043;-79
2022/12/12 05:58:24;;;;;;;1.25;1.15;;;;;;;-6.62;100.00;100234.28;10589127;28;20066;-78
2022/12/12 06:03:26;;;;;;;1.67;1.10;;;;;;;-6.61;100.00;100220.75;10588641;27;20047;-78
2022/12/12 06:08:28;;;;;;;3.50;2.10;;;;;;;-6.63;100.00;100237.94;10569418;28;20040;-78
2022/12/12 06:13:31;;;;;;;1.65;1.17;;;;;;;-6.63;100.00;100177.41;10595774;28;20544;-78
2022/12/12 06:18:33;;;;;;;0.88;0.82;;;;;;;-6.63;100.00;100197.94;10610013;28;20057;-78
2022/12/12 06:23:37;;;;;;;1.70;1.42;;;;;;;-6.64;100.00;100182.94;10610618;28;20047;-78
2022/12/12 06:28:40;;;;;;;2.78;1.95;;;;;;;-6.61;100.00;100180.72;10608971;28;20036;-78
2022/12/12 06:33:43;;;;;;;2.95;2.30;;;;;;;-6.58;100.00;100193.72;10605482;28;20056;-78
2022/12/12 06:38:45;;;;;;;3.47;1.70;;;;;;;-6.58;99.90;100185.72;10611336;28;20391;-77
2022/12/12 06:43:47;;;;;;;1.38;1.27;;;;;;;-6.57;100.00;100181.22;10602613;28;20050;-78
2022/12/12 06:48:50;;;;;;;2.83;1.67;;;;;;;-6.57;100.00;100173.22;10571602;28;20069;-78
2022/12/12 06:53:52;;;;;;;0.75;0.73;;;;;;;-6.54;100.00;100164.84;10610902;28;20039;-78
2022/12/12 06:58:56;;;;;;;4.07;1.92;;;;;;;-6.53;99.46;100178.00;10592810;28;20049;-78
2022/12/12 07:03:59;;;;;;;3.13;1.33;;;;;;;-6.55;99.41;100230.72;10565897;28;20040;-78
2022/12/12 07:09:01;;;;;;;5.53;2.75;;;;;;;-6.54;99.07;100165.66;10542050;28;20198;-78
2022/12/12 07:14:04;;;;;;;8.57;2.75;;;;;;;-6.51;99.05;100156.47;10570070;28;20051;-78
2022/12/12 07:19:06;;;;;;;1.95;1.23;;;;;;;-6.50;99.25;100136.75;10604110;28;20039;-78
2022/12/12 07:24:08;;;;;;;1.85;1.40;;;;;;;-6.45;99.03;100151.22;10575844;28;20039;-78
2022/12/12 07:29:11;;;;;;;1.38;1.13;;;;;;;-6.42;98.31;100102.81;10575745;28;20051;-79
2022/12/12 07:34:13;;;;;;;2.65;2.42;;;;;;;-6.40;99.04;100102.63;10531525;28;20054;-77
2022/12/12 07:39:15;;;;;;;8.50;2.58;;;;;;;-6.37;99.68;100150.31;10542560;28;20039;-77
2022/12/12 07:44:17;;;;;;;2.17;1.63;;;;;;;-6.35;99.84;100120.75;10617112;28;20047;-78
2022/12/12 07:49:20;;;;;;;2.67;2.03;;;;;;;-6.34;99.83;100117.06;10615234;28;20058;-78
2022/12/12 07:54:22;;;;;;;2.85;2.20;;;;;;;-6.33;100.00;100108.06;10593070;28;20052;-78
2022/12/12 07:59:24;;;;;;;4.57;2.53;;;;;;;-6.32;100.00;100224.50;10579206;28;20422;-78
2022/12/12 08:04:26;;;;;;;1.98;1.42;;;;;;;-6.31;100.00;100098.84;10616472;28;20042;-77
2022/12/12 08:09:28;;;;;;;2.33;1.60;;;;;;;-6.26;100.00;100066.25;10609246;28;20494;-77
2022/12/12 08:14:31;;;;;;;3.53;1.92;;;;;;;-6.22;100.00;100062.22;10597311;28;20042;-78
2022/12/12 08:19:33;;;;;;;1.95;1.52;;;;;;;-6.22;100.00;100087.06;10615430;28;20387;-77
2022/12/12 08:24:35;;;;;;;4.25;2.40;;;;;;;-6.18;100.00;100055.47;10614023;28;20043;-79
2022/12/12 08:29:37;;;;;;;1.55;1.38;;;;;;;-6.15;100.00;100063.09;10583489;28;20063;-77
2022/12/12 08:34:39;;;;;;;7.90;2.85;;;;;;;-6.15;100.00;100021.22;10614977;28;20552;-78
2022/12/12 08:39:41;;;;;;;2.83;2.15;;;;;;;-6.12;100.00;100049.38;10614247;28;20039;-79
2022/12/12 08:44:44;;;;;;;2.90;1.48;;;;;;;-6.08;100.00;99991.88;10604332;28;20043;-78
2022/12/12 08:49:46;;;;;;;3.55;2.17;;;;;;;-6.10;99.65;100012.63;10614869;28;20043;-78
2022/12/12 08:54:48;;;;;;;7.00;1.98;;;;;;;-6.16;100.00;100008.88;10613321;28;20050;-78
2022/12/12 08:59:50;;;;;;;6.32;2.60;;;;;;;-6.16;100.00;100008.03;10611325;28;20039;-77
2022/12/12 09:04:53;;;;;;;4.75;3.03;;;;;;;-6.18;100.00;99964.69;10571354;28;20075;-77
2022/12/12 09:09:55;;;;;;;5.82;3.33;;;;;;;-6.17;100.00;99950.31;10552623;28;20048;-78
2022/12/12 09:14:57;;;;;;;5.85;3.08;;;;;;;-6.17;100.00;99927.13;10592684;28;20110;-78
2022/12/12 09:19:59;;;;;;;4.75;2.92;;;;;;;-6.14;100.00;99973.97;10593602;28;20048;-78
2022/12/12 09:25:02;;;;;;;1.23;0.95;;;;;;;-6.14;100.00;99957.94;10612928;28;20043;-78
2022/12/12 09:30:05;;;;;;;7.18;4.43;;;;;;;-6.17;100.00;99983.19;10590970;28;20048;-78
2022/12/12 09:35:07;;;;;;;4.70;2.40;;;;;;;-6.16;100.00;99959.97;10598842;28;20063;-77
2022/12/12 09:40:18;;;;;;;4.28;2.60;;;;;;;-6.19;100.00;99987.91;10613032;28;20039;-79
2022/12/12 09:45:21;;;;;;;5.15;2.80;;;;;;;-6.23;100.00;99919.88;10612558;28;20395;-78
2022/12/12 09:50:31;;;;;;;4.70;2.80;;;;;;;-6.23;100.00;99922.53;10579720;28;20054;-78
2022/12/12 09:55:36;;;;;;;5.72;3.35;;;;;;;-6.22;100.00;99905.50;10573689;28;20036;-78
2022/12/12 10:00:39;;;;;;;3.15;1.58;;;;;;;-6.21;99.93;99917.84;10589130;28;20036;-77
2022/12/12 10:06:03;;;;;;;2.33;1.17;;;;;;;-6.21;99.39;99936.53;10597648;28;20035;-80
2022/12/12 10:11:48;;;;;;;5.70;2.78;;;;;;;-6.20;99.11;99916.00;10598168;28;20039;-79
2022/12/12 10:16:32;;;;;;;4.53;2.03;;;;;;;-6.28;99.31;99937.47;10599260;28;20051;-79
2022/12/12 10:21:39;;;;;;;5.65;3.42;;;;;;;-6.38;99.30;99909.25;10595378;28;20039;-79
2022/12/12 10:26:41;;;;;;;3.78;2.80;;;;;;;-6.38;99.80;99895.91;10616585;28;20047;-80
2022/12/12 10:32:02;;;;;;;4.57;4.15;;;;;;;-6.41;98.78;99882.94;10618796;28;20681;-80
2022/12/12 10:37:35;;;;;;;7.15;3.10;;;;;;;-6.46;99.65;99906.69;10615336;28;20056;-78
2022/12/12 10:43:10;;;;;;;4.18;2.08;;;;;;;-6.55;99.26;99883.00;10594752;28;20031;-83
2022/12/12 10:48:12;;;;;;;5.32;3.40;;;;;;;-6.60;99.29;99870.19;10616031;28;20036;-80
2022/12/12 10:53:14;;;;;;;5.85;3.53;;;;;;;-6.67;98.95;99863.97;10612691;28;20051;-80
2022/12/12 10:58:17;;;;;;;4.85;2.60;;;;;;;-6.76;98.37;99819.78;10603856;28;20126;-79
2022/12/12 11:03:25;;;;;;;4.25;2.42;;;;;;;-6.84;98.42;99858.03;10614794;27;20040;-81
2022/12/12 11:08:33;;;;;;;5.57;3.30;;;;;;;-6.87;98.34;99818.41;10603859;28;20043;-79
2022/12/12 11:13:50;;;;;;;7.57;4.00;;;;;;;-6.91;98.43;99880.31;10608003;28;20081;-80
2022/12/12 11:19:17;;;;;;;5.88;2.53;;;;;;;-6.97;97.76;99812.53;10617416;28;20041;-80
2022/12/12 11:24:22;;;;;;;2.47;2.22;;;;;;;-7.00;97.84;99803.09;10614807;28;20046;-80
2022/12/12 11:29:33;;;;;;;4.28;1.80;;;;;;;-7.03;98.34;99790.13;10624819;28;20458;-81
2022/12/12 11:34:38;;;;;;;4.70;2.75;;;;;;;-7.06;97.43;99833.16;10587419;28;20057;-79
2022/12/12 11:39:43;;;;;;;5.93;3.40;;;;;;;-7.18;96.17;99807.19;10605760;28;20418;-81
2022/12/12 11:44:45;;;;;;;7.65;4.38;;;;;;;-7.27;96.24;99797.66;10591404;28;20512;-81
2022/12/12 11:49:50;;;;;;;5.22;2.97;;;;;;;-7.33;96.47;99737.91;10581000;28;20061;-79
2022/12/12 11:54:53;;;;;;;6.18;3.38;;;;;;;-7.38;95.94;99781.13;10576517;28;20395;-80
2022/12/12 12:00:14;;;;;;;1.55;1.05;;;;;;;-7.41;96.21;99752.19;10583587;28;20046;-81
2022/12/12 12:05:24;;;;;;;2.33;2.03;;;;;;;-7.46;96.94;99733.28;10581328;28;20049;-82
2022/12/12 12:10:51;;;;;;;4.05;2.50;;;;;;;-7.49;96.86;99730.97;10583237;28;20031;-81
2022/12/12 12:16:05;;;;;;;6.03;3.45;;;;;;;-7.54;96.82;99728.03;10594591;28;20051;-81
2022/12/12 12:21:21;;;;;;;3.17;1.83;;;;;;;-7.55;97.08;99715.72;10551108;28;20046;-79
2022/12/12 12:26:45;;;;;;;4.68;2.50;;;;;;;-7.52;97.95;99703.88;10578760;28;20050;-79
2022/12/12 12:31:50;;;;;;;5.78;2.60;;;;;;;-7.54;97.54;99708.56;10573680;28;20050;-77
2022/12/12 12:37:20;;;;;;;4.55;2.45;;;;;;;-7.58;97.49;99689.47;10606600;28;20063;-78
2022/12/12 12:42:39;;;;;;;7.03;3.25;;;;;;;-7.64;97.73;99719.50;10579341;28;20081;-78
2022/12/12 12:47:59;;;;;;;2.65;2.30;;;;;;;-7.69;98.36;99727.22;10598764;28;20059;-78
2022/12/12 12:53:11;;;;;;;5.53;2.83;;;;;;;-7.70;98.43;99662.47;10598292;28;20055;-78
2022/12/12 12:58:38;;;;;;;6.95;3.63;;;;;;;-7.72;98.31;99693.81;10597766;28;20676;-80
2022/12/12 13:03:49;;;;;;;6.72;3.80;;;;;;;-7.80;98.33;99687.78;10593960;27;20073;-78
2022/12/12 13:08:57;;;;;;;3.05;2.38;;;;;;;-7.84;98.04;99675.81;10604373;28;20051;-80
2022/12/12 13:14:11;;;;;;;5.72;2.55;;;;;;;-7.86;98.06;99668.03;10572336;28;20544;-81
2022/12/12 13:19:34;;;;;;;6.72;3.83;;;;;;;-7.88;98.36;99694.00;10589409;27;20587;-78
2022/12/12 13:24:36;;;;;;;8.98;4.97;;;;;;;-7.90;97.80;99669.41;10612090;28;20084;-80
2022/12/12 13:29:51;;;;;;;5.25;3.40;;;;;;;-7.90;98.84;99666.75;10619489;27;20059;-83
2022/12/12 13:34:57;;;;;;;2.20;1.92;;;;;;;-7.92;98.24;99603.03;10613518;28;20049;-82
2022/12/12 13:40:05;;;;;;;8.10;4.35;;;;;;;-7.89;98.46;99639.13;10600830;28;20039;-86
2022/12/12 13:45:34;;;;;;;6.35;3.92;;;;;;;-8.01;98.38;99611.31;10598160;28;20037;-82
2022/12/12 13:50:37;;;;;;;7.85;3.35;;;;;;;-8.05;99.08;99639.31;10607857;28;20086;-81
2022/12/12 13:55:39;;;;;;;6.15;3.53;;;;;;;-8.12;98.52;99644.56;10612584;28;20046;-83
2022/12/12 14:00:45;;;;;;;8.13;3.95;;;;;;;-8.13;98.64;99632.28;10620634;28;20035;-81
2022/12/12 14:05:53;;;;;;;2.85;2.13;;;;;;;-8.13;99.14;99560.41;10603356;28;20066;-82
2022/12/12 14:11:01;;;;;;;6.55;2.67;;;;;;;-8.14;99.09;99568.59;10590313;28;20032;-83
2022/12/12 14:16:19;;;;;;;3.05;1.92;;;;;;;-8.21;100.00;99553.34;10600357;28;20040;-85
2022/12/12 14:21:39;;;;;;;8.65;3.13;;;;;;;-8.24;100.00;99563.56;10604809;28;20577;-81
2022/12/12 14:26:42;;;;;;;7.15;3.15;;;;;;;-8.27;100.00;99519.53;10590392;28;20516;-80
2022/12/12 14:31:57;;;;;;;3.45;2.47;;;;;;;-8.27;99.91;99492.91;10619426;28;20058;-80
2022/12/12 14:37:14;;;;;;;5.03;3.25;;;;;;;-8.29;100.00;99532.19;9684377;28;25611116;-78
2022/12/12 14:42:41;;;;;;;6.47;3.70;;;;;;;-8.28;100.00;99499.25;10574271;28;20042;-79
2022/12/12 14:47:47;;;;;;;5.55;3.28;;;;;;;-8.30;100.00;99480.00;10534471;28;20498;-79
2022/12/12 14:52:53;;;;;;;7.40;3.45;;;;;;;-8.28;100.00;99493.94;10536267;28;20045;-77
2022/12/12 14:57:55;;;;;;;5.90;5.05;;;;;;;-8.26;100.00;99491.91;10526631;28;20036;-79
2022/12/12 15:02:59;;;;;;;6.72;2.92;;;;;;;-8.23;100.00;99491.53;10525647;28;20414;-78
2022/12/12 15:08:01;;;;;;;4.13;2.60;;;;;;;-8.26;100.00;99441.34;10526439;28;20040;-80
2022/12/12 15:13:30;;;;;;;4.53;3.47;;;;;;;-8.25;100.00;99429.69;10508418;28;20044;-80
2022/12/12 15:18:32;;;;;;;6.55;3.58;;;;;;;-8.22;100.00;99436.47;10528425;28;20048;-79
2022/12/12 15:23:34;;;;;;;5.55;3.03;;;;;;;-8.18;100.00;99436.91;10524436;28;20048;-80
2022/12/12 15:28:36;;;;;;;2.55;1.58;;;;;;;-8.21;100.00;99414.97;10507327;28;20051;-79
2022/12/12 15:33:39;;;;;;;9.35;3.97;;;;;;;-8.18;100.00;99442.22;10558275;28;20040;-80
2022/12/12 15:38:42;;;;;;;6.43;3.40;;;;;;;-8.18;100.00;99435.06;10577946;28;20052;-80
2022/12/12 15:43:44;;;;;;;5.85;2.80;;;;;;;-8.16;100.00;99437.53;10557360;28;20052;-79
2022/12/12 15:48:48;;;;;;;2.75;1.98;;;;;;;-8.15;100.00;99399.28;10574779;28;20449;-79
2022/12/12 15:53:51;;;;;;;5.18;2.72;;;;;;;-8.20;100.00;99416.63;10576763;28;20040;-79
2022/12/12 15:59:14;;;;;;;5.05;2.97;;;;;;;-8.25;100.00;99428.88;10581677;28;20043;-78
2022/12/12 16:04:16;;;;;;;3.53;2.25;;;;;;;-8.27;100.00;99447.69;10598876;28;20035;-80
2022/12/12 16:09:20;;;;;;;6.72;2.92;;;;;;;-8.27;100.00;99406.94;10615647;28;20059;-80
2022/12/12 16:14:32;;;;;;;3.85;2.60;;;;;;;-8.34;100.00;99438.81;10616892;28;20134;-80
2022/12/12 16:19:36;;;;;;;3.45;2.03;;;;;;;-8.39;100.00;99411.97;10615997;28;20054;-80
2022/12/12 16:24:54;;;;;;;2.33;1.83;;;;;;;-8.39;100.00;99393.34;10615992;28;20043;-80
2022/12/12 16:29:56;;;;;;;5.77;2.67;;;;;;;-8.47;100.00;99416.59;10616460;28;20121;-80
2022/12/12 16:34:58;;;;;;;5.88;2.40;;;;;;;-8.49;100.00;99406.16;10600216;27;20043;-80
2022/12/12 16:40:00;;;;;;;6.93;3.25;;;;;;;-8.50;100.00;99415.16;10601028;27;20039;-83
2022/12/12 16:45:03;;;;;;;4.43;3.05;;;;;;;-8.50;100.00;99412.50;10560458;28;20040;-82
2022/12/12 16:50:06;;;;;;;1.92;0.95;;;;;;;-8.56;100.00;99395.44;10563620;28;20059;-82
2022/12/12 16:55:21;;;;;;;4.30;2.63;;;;;;;-8.60;100.00;99380.03;10613554;28;20043;-84
2022/12/12 17:00:23;;;;;;;2.33;1.50;;;;;;;-8.61;100.00;99376.56;10592249;28;20050;-83
2022/12/12 17:05:26;;;;;;;5.07;2.58;;;;;;;-8.61;100.00;99402.34;10586812;28;20046;-84
2022/12/12 17:10:30;;;;;;;1.05;0.82;;;;;;;-8.64;100.00;99368.97;10591764;28;20057;-81
2022/12/12 17:15:33;;;;;;;3.25;1.90;;;;;;;-8.65;100.00;99382.47;10576566;28;20047;-81
2022/12/12 17:20:36;;;;;;;3.15;1.88;;;;;;;-8.66;100.00;99348.91;10567349;28;20146;-84
2022/12/12 17:25:39;;;;;;;2.30;1.50;;;;;;;-8.66;100.00;99357.69;10612841;28;20051;-82
2022/12/12 17:30:41;;;;;;;4.07;2.35;;;;;;;-8.67;99.94;99366.69;10612641;28;20518;-83
2022/12/12 17:35:44;;;;;;;1.17;1.05;;;;;;;-8.70;100.00;99382.19;10593291;27;20043;-81
2022/12/12 17:40:47;;;;;;;3.83;2.85;;;;;;;-8.72;100.00;99352.31;10571748;28;20168;-81
2022/12/12 17:46:00;;;;;;;3.97;2.50;;;;;;;-8.73;100.00;99354.13;10607133;28;20035;-81
2022/12/12 17:51:06;;;;;;;2.17;1.98;;;;;;;-8.76;100.00;99353.69;10609133;27;20062;-82
2022/12/12 17:56:16;;;;;;;3.60;1.80;;;;;;;-8.75;99.77;99381.94;10614224;28;20417;-82
2022/12/12 18:01:27;;;;;;;1.38;1.27;;;;;;;-8.82;100.00;99348.13;10611003;28;20038;-80
2022/12/12 18:06:32;;;;;;;3.05;1.98;;;;;;;-8.84;99.53;99352.81;10619977;27;20031;-78
2022/12/12 18:11:34;;;;;;;5.43;2.88;;;;;;;-8.83;99.76;99322.56;10623945;27;20445;-81
2022/12/12 18:16:36;;;;;;;2.45;1.42;;;;;;;-8.84;100.00;99312.94;10613189;28;20048;-80
2022/12/12 18:21:41;;;;;;;4.20;2.30;;;;;;;-8.85;100.00;99321.94;10612909;28;20044;-79
2022/12/12 18:26:44;;;;;;;2.78;1.70;;;;;;;-8.87;100.00;99313.28;10580908;28;20035;-80
2022/12/12 18:31:46;;;;;;;4.80;2.85;;;;;;;-8.92;99.16;99310.38;10606729;28;20063;-77
2022/12/12 18:36:48;;;;;;;3.15;1.90;;;;;;;-8.91;100.00;99308.56;10587871;28;20051;-79
2022/12/12 18:41:51;;;;;;;3.53;2.58;;;;;;;-8.92;100.00;99299.75;10608388;28;20055;-80
2022/12/12 18:46:53;;;;;;;5.18;2.95;;;;;;;-8.95;99.65;99299.31;10613840;28;20044;-78
2022/12/12 18:51:55;;;;;;;2.15;1.48;;;;;;;-8.96;99.75;99311.78;10620987;28;20043;-79
2022/12/12 18:56:57;;;;;;;1.77;1.27;;;;;;;-8.95;99.85;99305.44;10597396;28;20042;-78
2022/12/12 19:01:59;;;;;;;3.95;1.90;;;;;;;-8.94;99.58;99320.38;10585945;28;20034;-80
2022/12/12 19:07:02;;;;;;;1.75;1.40;;;;;;;-8.96;99.79;99295.84;10600602;28;20055;-78
2022/12/12 19:12:05;;;;;;;4.32;2.03;;;;;;;-8.94;99.97;99301.78;10627119;27;20402;-79
2022/12/12 19:17:07;;;;;;;1.00;0.82;;;;;;;-8.94;99.41;99293.81;10622762;28;20099;-80
2022/12/12 19:22:13;;;;;;;3.22;2.35;;;;;;;-8.93;99.35;99297.28;10628454;27;20045;-77
2022/12/12 19:27:20;;;;;;;6.50;4.18;;;;;;;-8.90;99.20;99284.44;10612829;27;20508;-79
2022/12/12 19:32:22;;;;;;;5.28;3.20;;;;;;;-8.89;99.80;99283.44;10614187;27;20044;-79
2022/12/12 19:37:24;;;;;;;5.68;3.53;;;;;;;-8.86;99.18;99276.91;10599914;27;20063;-78
2022/12/12 19:42:27;;;;;;;5.43;2.40;;;;;;;-8.85;99.05;99263.44;10567938;27;20501;-80
2022/12/12 19:47:31;;;;;;;5.35;2.60;;;;;;;-8.83;98.94;99277.38;10620379;28;20038;-81
2022/12/12 19:52:33;;;;;;;5.75;3.50;;;;;;;-8.79;99.33;99282.31;10613882;27;20044;-81
2022/12/12 19:57:39;;;;;;;4.70;3.10;;;;;;;-8.77;99.46;99286.41;10614295;27;20058;-78
2022/12/12 20:02:41;;;;;;;4.40;2.63;;;;;;;-8.74;99.70;99271.91;10630063;27;20043;-78
2022/12/12 20:07:44;;;;;;;5.07;2.83;;;;;;;-8.76;99.84;99268.63;10597981;27;20044;-79
2022/12/12 20:12:49;;;;;;;5.07;2.65;;;;;;;-8.76;99.29;99261.47;10587473;28;20042;-78
2022/12/12 20:17:52;;;;;;;6.63;3.45;;;;;;;-8.76;99.67;99261.47;10597069;28;20043;-77
2022/12/12 20:22:59;;;;;;;4.65;2.60;;;;;;;-8.74;99.47;99263.94;10598458;28;20067;-79
2022/12/12 20:28:01;;;;;;;3.70;2.63;;;;;;;-8.75;98.85;99262.28;10619187;27;20417;-78
2022/12/12 20:33:03;;;;;;;5.97;3.50;;;;;;;-8.73;99.21;99270.91;10614159;27;20048;-81
2022/12/12 20:38:05;;;;;;;6.57;3.92;;;;;;;-8.76;99.04;99272.09;10630555;27;20031;-80
2022/12/12 20:43:08;;;;;;;4.95;3.17;;;;;;;-8.80;98.89;99254.91;10599548;27;20045;-79
2022/12/12 20:48:14;;;;;;;5.82;3.17;;;;;;;-8.79;98.58;99247.75;10619846;27;20486;-79
2022/12/12 20:53:16;;;;;;;6.15;3.22;;;;;;;-8.79;99.01;99255.72;10614725;27;20053;-79
2022/12/12 20:58:22;;;;;;;7.18;3.63;;;;;;;-8.78;98.42;99268.00;10614578;27;20039;-78
2022/12/12 21:03:25;;;;;;;6.30;2.63;;;;;;;-8.77;98.56;99253.69;10611469;27;20036;-77
2022/12/12 21:08:31;;;;;;;7.03;3.67;;;;;;;-8.75;98.79;99252.47;10615773;28;20058;-77
2022/12/12 21:13:34;;;;;;;7.22;3.38;;;;;;;-8.75;99.39;99259.63;10613978;27;20031;-82
2022/12/12 21:18:36;;;;;;;4.93;2.65;;;;;;;-8.78;99.38;99283.94;10597904;28;20048;-80
2022/12/12 21:23:39;;;;;;;5.38;2.55;;;;;;;-8.82;99.19;99273.69;10611245;28;20405;-78
2022/12/12 21:28:43;;;;;;;7.15;3.08;;;;;;;-8.79;99.18;99277.00;10614302;28;20039;-77
2022/12/12 21:33:45;;;;;;;6.43;2.80;;;;;;;-8.78;98.64;99270.66;10613988;28;20067;-80
2022/12/12 21:38:48;;;;;;;5.10;3.25;;;;;;;-8.76;98.88;99287.22;10599002;28;20517;-78
2022/12/12 21:43:51;;;;;;;4.15;2.17;;;;;;;-8.75;98.98;99272.94;10634320;27;20043;-79
2022/12/12 21:54:15;;;;;;;6.03;2.83;;;;;;;-8.76;98.62;99260.66;10605173;28;20397;-81
2022/12/12 21:59:17;;;;;;;7.40;3.03;;;;;;;-8.78;99.50;99281.28;10601372;28;20043;-81
2022/12/12 22:04:19;;;;;;;7.30;4.18;;;;;;;-8.80;99.47;99280.66;10619291;28;20039;-79
2022/12/12 22:09:21;;;;;;;5.93;2.60;;;;;;;-8.83;98.90;99268.56;10583167;28;20036;-78
2022/12/12 22:14:24;;;;;;;8.70;4.38;;;;;;;-8.84;98.81;99267.75;10614780;27;20047;-78
2022/12/12 22:19:26;;;;;;;7.05;3.33;;;;;;;-8.82;99.44;99267.56;10605564;28;20050;-78
2022/12/12 22:24:28;;;;;;;8.13;3.72;;;;;;;-8.80;99.10;99278.81;10644104;28;20043;-79
2022/12/12 22:29:33;;;;;;;7.07;3.80;;;;;;;-8.82;99.16;99278.19;10637341;28;20048;-81
2022/12/12 22:34:35;;;;;;;6.60;3.47;;;;;;;-8.83;99.68;99271.22;10579824;28;20047;-78
2022/12/12 22:39:37;;;;;;;4.85;2.33;;;;;;;-8.85;99.76;99291.84;10629301;27;20537;-81
2022/12/12 22:44:39;;;;;;;6.72;3.83;;;;;;;-8.87;99.90;99294.69;10653196;27;20046;-79
2022/12/12 22:49:41;;;;;;;7.47;3.83;;;;;;;-8.85;99.79;99299.81;10647893;27;20049;-80
2022/12/12 22:54:43;;;;;;;3.67;2.20;;;;;;;-8.84;99.92;99296.16;10641166;27;20505;-82
2022/12/12 22:59:46;;;;;;;3.67;2.80;;;;;;;-8.79;99.80;99300.91;10616210;28;20036;-81
2022/12/12 23:04:48;;;;;;;4.75;2.58;;;;;;;-8.75;100.00;99294.19;10590753;28;20533;-80
2022/12/12 23:09:54;;;;;;;3.67;2.42;;;;;;;-8.75;99.94;99310.97;10628135;27;20043;-80
2022/12/12 23:14:56;;;;;;;6.88;3.38;;;;;;;-8.71;99.75;99311.41;10622586;27;20046;-79
2022/12/12 23:19:58;;;;;;;8.15;3.67;;;;;;;-8.74;100.00;99309.13;10610260;27;20047;-80
2022/12/12 23:25:01;;;;;;;4.57;2.35;;;;;;;-8.76;99.81;99306.66;10623033;27;20031;-79
2022/12/12 23:30:03;;;;;;;7.57;3.50;;;;;;;-8.73;100.00;99308.94;10629418;27;20047;-80
2022/12/12 23:35:06;;;;;;;6.55;2.83;;;;;;;-8.71;99.94;99312.22;10604862;27;20039;-80
2022/12/12 23:40:09;;;;;;;5.95;2.72;;;;;;;-8.69;99.59;99309.38;10636606;27;20065;-80
2022/12/12 23:45:11;;;;;;;5.25;2.85;;;;;;;-8.68;100.00;99313.69;10654570;27;20044;-80
2022/12/12 23:50:13;;;;;;;7.47;4.03;;;;;;;-8.68;100.00;99305.69;10634677;27;20047;-80
2022/12/12 23:55:15;;;;;;;7.25;3.05;;;;;;;-8.68;100.00;99297.72;10591526;28;20051;-83
